createdAt,value
2023-02-28T00:00:50.700Z,103060.31
2023-02-28T00:03:17.421Z,103065.03
2023-02-28T00:05:44.200Z,103066.13
2023-02-28T00:08:10.923Z,103065.63
2023-02-28T00:10:37.437Z,103066.09
2023-02-28T00:13:07.095Z,103067.47
2023-02-28T00:15:34.468Z,103062.47
2023-02-28T00:18:01.189Z,103066.31
2023-02-28T00:20:27.935Z,103057.53
2023-02-28T00:22:55.960Z,103058.91
2023-02-28T00:25:25.486Z,103052.84
2023-02-28T00:27:52.346Z,103057.19
2023-02-28T00:30:24.308Z,103058.81
2023-02-28T00:32:51.641Z,103053.22
2023-02-28T00:35:18.439Z,103054.84
2023-02-28T00:37:44.924Z,103052.00
2023-02-28T00:40:13.010Z,103048.41
2023-02-28T00:42:39.902Z,103043.41
2023-02-28T00:45:09.227Z,103047.00
2023-02-28T00:47:38.276Z,103049.69
2023-02-28T00:50:05.981Z,103045.28
2023-02-28T00:52:32.571Z,103043.03
2023-02-28T00:54:59.168Z,103044.78
2023-02-28T00:57:25.704Z,103043.41
2023-02-28T00:59:52.253Z,103055.41
2023-02-28T01:02:20.804Z,103057.28
2023-02-28T01:04:47.913Z,103059.38
2023-02-28T01:07:15.443Z,103062.22
2023-02-28T01:09:42.518Z,103072.88
2023-02-28T01:12:10.308Z,103074.28
2023-02-28T01:14:37.267Z,103075.31
2023-02-28T01:17:03.833Z,103080.66
2023-02-28T01:19:32.052Z,103076.53
2023-02-28T01:22:02.098Z,103073.94
2023-02-28T01:24:28.724Z,103078.41
2023-02-28T01:26:55.210Z,103073.06
2023-02-28T01:29:21.706Z,103071.34
2023-02-28T01:31:48.240Z,103067.69
2023-02-28T01:34:14.785Z,103071.94
2023-02-28T01:36:41.341Z,103068.59
2023-02-28T01:39:07.873Z,103057.56
2023-02-28T01:41:35.827Z,103058.53
2023-02-28T01:44:23.153Z,103060.66
2023-02-28T01:46:49.672Z,103056.38
2023-02-28T01:49:18.852Z,103057.06
2023-02-28T01:51:51.881Z,103063.13
2023-02-28T01:54:25.118Z,103048.44
2023-02-28T01:56:58.838Z,103052.16
2023-02-28T01:59:41.450Z,103053.28
2023-02-28T02:02:08.269Z,103059.72
2023-02-28T02:04:40.984Z,103046.19
2023-02-28T02:07:08.192Z,103048.94
2023-02-28T02:09:34.889Z,103050.91
2023-02-28T02:12:16.645Z,103048.81
2023-02-28T02:15:04.626Z,103047.59
2023-02-28T02:17:41.000Z,103040.78
2023-02-28T02:20:25.734Z,103049.84
2023-02-28T02:22:58.166Z,103045.31
2023-02-28T02:25:37.848Z,103041.50
2023-02-28T02:28:55.745Z,103041.50
2023-02-28T02:32:10.423Z,103036.59
2023-02-28T02:34:39.844Z,103034.13
2023-02-28T02:37:13.228Z,103035.19
2023-02-28T02:39:51.610Z,103044.75
2023-02-28T02:42:29.518Z,103039.78
2023-02-28T02:45:08.091Z,103038.84
2023-02-28T02:47:36.894Z,103041.66
2023-02-28T02:50:07.361Z,103036.03
2023-02-28T02:52:40.145Z,103040.09
2023-02-28T02:55:11.963Z,103034.75
2023-02-28T02:57:49.130Z,103040.97
2023-02-28T03:00:18.794Z,103037.59
2023-02-28T03:02:49.745Z,103046.53
2023-02-28T03:05:24.776Z,103035.28
2023-02-28T03:07:51.295Z,103033.53
2023-02-28T03:10:50.536Z,103043.75
2023-02-28T03:13:29.432Z,103044.91
2023-02-28T03:16:20.702Z,103041.94
2023-02-28T03:19:06.080Z,103033.25
2023-02-28T03:21:55.601Z,103044.31
2023-02-28T03:24:44.245Z,103035.38
2023-02-28T03:27:22.275Z,103042.44
2023-02-28T03:29:57.608Z,103034.50
2023-02-28T03:32:40.074Z,103038.41
2023-02-28T03:35:22.700Z,103037.28
2023-02-28T03:37:54.393Z,103039.91
2023-02-28T03:40:25.979Z,103039.19
2023-02-28T03:42:58.596Z,103035.31
2023-02-28T03:45:28.820Z,103039.75
2023-02-28T03:48:19.595Z,103041.28
2023-02-28T03:50:54.443Z,103039.91
2023-02-28T03:53:27.821Z,103032.84
2023-02-28T03:56:01.334Z,103033.47
2023-02-28T03:59:29.619Z,103033.66
2023-02-28T04:01:56.363Z,103033.59
2023-02-28T04:04:23.710Z,103030.38
2023-02-28T04:06:54.224Z,103034.97
2023-02-28T04:09:20.673Z,103026.78
2023-02-28T04:11:52.768Z,103029.28
2023-02-28T04:14:19.692Z,103023.69
2023-02-28T04:16:46.369Z,103022.34
2023-02-28T04:19:14.190Z,103023.00
2023-02-28T04:21:43.554Z,103022.66
2023-02-28T04:24:15.236Z,103021.66
2023-02-28T04:26:44.848Z,103027.75
2023-02-28T04:29:14.172Z,103035.06
2023-02-28T04:31:41.560Z,103038.91
2023-02-28T04:34:08.308Z,103040.06
2023-02-28T04:36:34.812Z,103037.59
2023-02-28T04:39:01.338Z,103035.72
2023-02-28T04:41:30.283Z,103032.34
2023-02-28T04:43:58.789Z,103034.47
2023-02-28T04:46:25.689Z,103038.00
2023-02-28T04:48:52.238Z,103032.72
2023-02-28T04:51:20.658Z,103031.78
2023-02-28T04:53:47.909Z,103027.97
2023-02-28T04:56:16.282Z,103043.22
2023-02-28T04:58:43.772Z,103038.91
2023-02-28T05:01:23.312Z,103043.03
2023-02-28T05:03:51.190Z,103038.25
2023-02-28T05:06:18.225Z,103047.81
2023-02-28T05:08:44.949Z,103043.88
2023-02-28T05:11:20.723Z,103052.94
2023-02-28T05:13:47.993Z,103050.06
2023-02-28T05:16:14.949Z,103045.88
2023-02-28T05:18:42.030Z,103051.72
2023-02-28T05:21:24.827Z,103050.50
2023-02-28T05:23:51.625Z,103053.91
2023-02-28T05:26:18.148Z,103047.22
2023-02-28T05:28:44.680Z,103058.13
2023-02-28T05:31:12.307Z,103060.63
2023-02-28T05:33:38.734Z,103055.28
2023-02-28T05:36:05.623Z,103060.50
2023-02-28T05:38:32.227Z,103058.75
2023-02-28T05:40:58.783Z,103055.41
2023-02-28T05:43:25.715Z,103065.22
2023-02-28T05:45:52.318Z,103069.81
2023-02-28T05:48:19.101Z,103067.19
2023-02-28T05:50:47.072Z,103075.38
2023-02-28T05:53:13.554Z,103070.78
2023-02-28T05:55:42.131Z,103070.78
2023-02-28T05:58:08.623Z,103073.00
2023-02-28T06:00:35.976Z,103070.56
2023-02-28T06:03:03.099Z,103074.88
2023-02-28T06:05:29.656Z,103076.13
2023-02-28T06:07:56.215Z,103068.25
2023-02-28T06:10:22.892Z,103070.38
2023-02-28T06:12:49.441Z,103075.94
2023-02-28T06:15:17.636Z,103078.38
2023-02-28T06:17:45.456Z,103081.56
2023-02-28T06:20:13.838Z,103079.81
2023-02-28T06:22:40.868Z,103084.06
2023-02-28T06:25:08.298Z,103084.41
2023-02-28T06:27:35.008Z,103086.47
2023-02-28T06:30:01.582Z,103086.88
2023-02-28T06:32:28.125Z,103087.53
2023-02-28T06:34:54.717Z,103090.66
2023-02-28T06:37:21.358Z,103092.41
2023-02-28T06:39:47.907Z,103092.28
2023-02-28T06:42:14.336Z,103085.59
2023-02-28T06:44:40.895Z,103092.91
2023-02-28T06:47:07.376Z,103097.13
2023-02-28T06:49:36.249Z,103095.91
2023-02-28T06:52:03.703Z,103096.69
2023-02-28T06:54:30.239Z,103098.31
2023-02-28T06:56:59.002Z,103097.44
2023-02-28T06:59:25.503Z,103106.50
2023-02-28T07:01:51.999Z,103103.78
2023-02-28T07:04:18.556Z,103113.59
2023-02-28T07:06:45.010Z,103105.28
2023-02-28T07:09:11.748Z,103107.25
2023-02-28T07:11:38.316Z,103101.81
2023-02-28T07:14:05.051Z,103112.72
2023-02-28T07:16:31.696Z,103106.16
2023-02-28T07:18:58.224Z,103103.31
2023-02-28T07:21:24.853Z,103116.38
2023-02-28T07:23:51.821Z,103113.28
2023-02-28T07:26:20.280Z,103116.00
2023-02-28T07:28:48.936Z,103122.47
2023-02-28T07:31:15.859Z,103126.53
2023-02-28T07:33:42.697Z,103126.03
2023-02-28T07:36:16.040Z,103125.44
2023-02-28T07:38:47.784Z,103135.59
2023-02-28T07:41:16.872Z,103125.75
2023-02-28T07:43:43.400Z,103133.81
2023-02-28T07:46:12.145Z,103131.88
2023-02-28T07:48:38.698Z,103136.41
2023-02-28T07:51:05.405Z,103136.56
2023-02-28T07:53:32.020Z,103136.16
2023-02-28T07:56:01.760Z,103135.13
2023-02-28T07:58:29.979Z,103140.25
2023-02-28T08:00:57.246Z,103135.94
2023-02-28T08:03:24.608Z,103141.41
2023-02-28T08:05:52.451Z,103144.81
2023-02-28T08:08:19.162Z,103139.59
2023-02-28T08:10:45.759Z,103145.78
2023-02-28T08:13:12.316Z,103142.94
2023-02-28T08:15:38.891Z,103145.00
2023-02-28T08:18:05.529Z,103145.63
2023-02-28T08:20:32.050Z,103144.13
2023-02-28T08:22:58.588Z,103143.38
2023-02-28T08:25:25.452Z,103143.25
2023-02-28T08:27:53.270Z,103141.25
2023-02-28T08:30:19.975Z,103138.41
2023-02-28T08:32:46.509Z,103140.06
2023-02-28T08:35:12.998Z,103134.63
2023-02-28T08:37:39.551Z,103131.13
2023-02-28T08:40:06.827Z,103129.56
2023-02-28T08:42:33.834Z,103134.47
2023-02-28T08:45:00.283Z,103141.03
2023-02-28T08:47:26.980Z,103138.84
2023-02-28T08:49:53.570Z,103141.69
2023-02-28T08:52:20.061Z,103144.28
2023-02-28T08:54:46.523Z,103141.69
2023-02-28T08:57:13.010Z,103140.81
2023-02-28T08:59:39.591Z,103142.56
2023-02-28T09:02:06.140Z,103142.91
2023-02-28T09:04:32.590Z,103147.25
2023-02-28T09:06:59.047Z,103139.06
2023-02-28T09:09:25.569Z,103145.81
2023-02-28T09:11:52.073Z,103145.81
2023-02-28T09:14:18.720Z,103150.78
2023-02-28T09:16:45.315Z,103134.53
2023-02-28T09:19:13.240Z,103140.88
2023-02-28T09:21:39.817Z,103137.16
2023-02-28T09:24:06.844Z,103130.94
2023-02-28T09:26:39.034Z,103142.97
2023-02-28T09:29:10.221Z,103131.81
2023-02-28T09:31:36.684Z,103130.94
2023-02-28T09:34:05.102Z,103136.28
2023-02-28T09:36:43.815Z,103135.41
2023-02-28T09:39:11.731Z,103134.19
2023-02-28T09:41:48.239Z,103135.81
2023-02-28T09:44:37.572Z,103134.13
2023-02-28T09:47:19.893Z,103129.22
2023-02-28T09:49:48.976Z,103129.97
2023-02-28T09:52:22.449Z,103126.25
2023-02-28T09:54:48.957Z,103133.84
2023-02-28T09:57:34.489Z,103135.50
2023-02-28T10:00:18.232Z,103134.47
2023-02-28T10:03:06.831Z,103125.19
2023-02-28T10:05:36.224Z,103128.31
2023-02-28T10:08:19.187Z,103121.53
2023-02-28T10:10:50.443Z,103123.25
2023-02-28T10:13:24.921Z,103119.91
2023-02-28T10:15:57.731Z,103121.03
2023-02-28T10:18:31.087Z,103111.22
2023-02-28T10:20:58.651Z,103109.84
2023-02-28T10:23:35.848Z,103109.31
2023-02-28T10:26:12.886Z,103116.16
2023-02-28T10:28:40.112Z,103113.03
2023-02-28T10:31:12.554Z,103122.84
2023-02-28T10:33:39.275Z,103112.25
2023-02-28T10:36:07.737Z,103115.63
2023-02-28T10:38:37.506Z,103118.72
2023-02-28T10:41:04.771Z,103110.41
2023-02-28T10:43:31.240Z,103110.00
2023-02-28T10:46:02.454Z,103103.41
2023-02-28T10:48:28.923Z,103097.66
2023-02-28T10:50:58.771Z,103093.31
2023-02-28T10:53:28.382Z,103107.13
2023-02-28T10:56:11.135Z,103100.41
2023-02-28T10:59:14.914Z,103093.19
2023-02-28T11:01:47.173Z,103089.94
2023-02-28T11:04:22.501Z,103088.66
2023-02-28T11:06:58.831Z,103089.91
2023-02-28T11:09:33.594Z,103087.25
2023-02-28T11:12:00.960Z,103084.72
2023-02-28T11:14:31.887Z,103086.78
2023-02-28T11:17:16.531Z,103083.53
2023-02-28T11:19:48.493Z,103075.63
2023-02-28T11:22:29.782Z,103078.84
2023-02-28T11:25:00.558Z,103077.91
2023-02-28T11:27:34.691Z,103078.31
2023-02-28T11:30:01.755Z,103073.19
2023-02-28T11:32:32.394Z,103077.69
2023-02-28T11:35:14.812Z,103071.28
2023-02-28T11:37:41.500Z,103066.84
2023-02-28T11:40:16.298Z,103072.66
2023-02-28T11:43:07.432Z,103058.97
2023-02-28T17:45:39.079Z,102986.72
2023-02-28T17:48:05.995Z,102989.16
2023-02-28T17:50:33.917Z,102991.31
2023-02-28T17:53:00.394Z,102990.13
2023-02-28T17:55:27.186Z,102985.91
2023-02-28T17:57:53.770Z,102997.03
2023-02-28T18:00:21.657Z,102989.00
2023-02-28T18:02:48.201Z,102998.56
2023-02-28T18:05:15.246Z,102995.50
2023-02-28T18:07:42.145Z,102996.03
2023-02-28T18:10:20.292Z,103000.84
2023-02-28T18:12:49.386Z,103005.56
2023-02-28T18:15:17.725Z,103004.19
2023-02-28T18:17:44.376Z,103001.84
2023-02-28T18:20:11.751Z,102993.66
2023-02-28T18:22:39.537Z,103000.78
2023-02-28T18:25:09.264Z,102996.72
2023-02-28T18:27:36.683Z,103002.22
2023-02-28T18:30:05.202Z,103004.94
2023-02-28T18:32:31.904Z,102995.59
2023-02-28T18:34:58.781Z,103006.69
2023-02-28T18:37:25.324Z,103003.94
2023-02-28T18:39:51.863Z,102999.69
2023-02-28T18:42:18.395Z,103003.09
2023-02-28T18:44:45.018Z,103002.47
2023-02-28T18:47:12.034Z,102998.13
2023-02-28T18:49:38.636Z,102992.78
2023-02-28T18:52:05.239Z,102998.00
2023-02-28T18:54:31.904Z,102998.88
2023-02-28T18:56:58.640Z,103002.22
2023-02-28T18:59:26.082Z,103002.44
2023-02-28T19:01:52.610Z,102999.19
2023-02-28T19:04:19.269Z,103006.13
2023-02-28T19:06:45.983Z,102999.66
2023-02-28T19:09:13.765Z,103002.28
2023-02-28T19:11:40.384Z,103003.13
2023-02-28T19:14:08.077Z,103004.13
2023-02-28T19:16:34.876Z,103009.75
2023-02-28T19:19:01.562Z,103009.63
2023-02-28T19:21:28.142Z,103010.75
2023-02-28T19:23:54.670Z,103008.88
2023-02-28T19:26:26.551Z,103008.88
2023-02-28T19:28:53.327Z,103008.13
2023-02-28T19:31:23.220Z,103004.81
2023-02-28T19:33:52.696Z,103001.06
2023-02-28T19:36:20.177Z,103014.13
2023-02-28T19:38:46.812Z,103024.22
2023-02-28T19:41:15.544Z,103014.38
2023-02-28T19:43:42.236Z,103023.44
2023-02-28T19:46:09.975Z,103029.19
2023-02-28T19:48:36.712Z,103027.56
2023-02-28T19:51:07.558Z,103029.84
2023-02-28T19:53:36.362Z,103032.84
2023-02-28T19:56:05.514Z,103029.34
2023-02-28T19:58:32.755Z,103034.97
2023-02-28T20:01:01.320Z,103034.22
2023-02-28T20:03:27.954Z,103037.50
2023-02-28T20:06:07.167Z,103033.78
2023-02-28T20:08:34.206Z,103028.06
2023-02-28T20:11:08.910Z,103035.63
2023-02-28T20:13:36.058Z,103034.25
2023-02-28T20:16:06.113Z,103044.06
2023-02-28T20:18:34.220Z,103043.81
2023-02-28T20:21:01.830Z,103045.53
2023-02-28T20:23:28.464Z,103040.06
2023-02-28T20:25:59.081Z,103042.69
2023-02-28T20:28:25.683Z,103040.06
2023-02-28T20:30:52.514Z,103043.56
2023-02-28T20:33:19.582Z,103040.69
2023-02-28T20:35:46.298Z,103039.81
2023-02-28T20:38:12.925Z,103029.00
2023-02-28T20:40:39.509Z,103035.34
2023-02-28T20:43:06.553Z,103036.22
2023-02-28T20:45:33.152Z,103035.34
2023-02-28T20:48:00.820Z,103034.72
2023-02-28T20:50:27.387Z,103037.47
2023-02-28T20:52:53.921Z,103027.53
2023-02-28T20:55:20.502Z,103028.66
2023-02-28T20:57:47.458Z,103039.84
2023-02-28T21:00:16.297Z,103042.72
2023-02-28T21:02:42.944Z,103044.84
2023-02-28T21:05:09.807Z,103045.09
2023-02-28T21:07:36.307Z,103048.56
2023-02-28T21:10:03.020Z,103044.97
2023-02-28T21:12:29.591Z,103044.97
2023-02-28T21:14:56.399Z,103046.34
2023-02-28T21:17:22.929Z,103044.34
2023-02-28T21:19:49.529Z,103045.09
2023-02-28T21:22:16.270Z,103044.34
2023-02-28T21:24:43.935Z,103041.75
2023-02-28T21:27:10.512Z,103031.94
2023-02-28T21:29:38.348Z,103038.88
2023-02-28T21:32:06.586Z,103028.19
2023-02-28T21:34:33.218Z,103035.91
2023-02-28T21:36:59.763Z,103032.44
2023-02-28T21:39:28.859Z,103036.16
2023-02-28T21:41:57.017Z,103034.16
2023-02-28T21:44:23.575Z,103032.19
2023-02-28T21:46:54.818Z,103028.69
2023-02-28T21:49:21.564Z,103024.97
2023-02-28T21:51:48.372Z,103032.19
2023-02-28T21:54:15.062Z,103033.91
2023-02-28T21:56:41.756Z,103031.31
2023-02-28T21:59:09.707Z,103038.91
2023-02-28T22:01:37.858Z,103039.16
2023-02-28T22:04:07.118Z,103037.41
2023-02-28T22:06:37.098Z,103042.00
2023-02-28T22:09:06.002Z,103033.81
2023-02-28T22:11:34.560Z,103034.69
2023-02-28T22:14:01.778Z,103032.69
2023-02-28T22:16:49.710Z,103032.44
2023-02-28T22:19:17.866Z,103029.69
2023-02-28T22:21:45.681Z,103033.31
2023-02-28T22:24:12.328Z,103035.16
2023-02-28T22:26:38.911Z,103031.69
2023-02-28T22:29:05.561Z,103037.28
2023-02-28T22:31:34.394Z,103036.53
2023-02-28T22:34:08.748Z,103036.66
2023-02-28T22:36:36.488Z,103032.06
2023-02-28T22:39:04.816Z,103035.91
2023-02-28T22:41:33.593Z,103043.50
2023-02-28T22:44:03.327Z,103037.91
2023-02-28T22:46:32.516Z,103045.50
2023-02-28T22:49:01.054Z,103046.38
2023-02-28T22:51:28.170Z,103049.22
2023-02-28T22:53:58.146Z,103048.97
2023-02-28T22:56:27.125Z,103050.72
2023-02-28T22:58:56.198Z,103059.16
2023-02-28T23:01:25.379Z,103054.69
2023-02-28T23:03:52.303Z,103043.84
2023-02-28T23:06:23.425Z,103045.59
2023-02-28T23:08:52.045Z,103042.09
2023-02-28T23:11:25.060Z,103047.56
2023-02-28T23:13:59.491Z,103042.34
2023-02-28T23:16:32.920Z,103033.41
2023-02-28T23:19:01.964Z,103032.91
2023-02-28T23:21:29.155Z,103036.66
2023-02-28T23:23:55.936Z,103036.66
2023-02-28T23:26:23.930Z,103045.59
2023-02-28T23:28:50.537Z,103046.59
2023-02-28T23:31:18.293Z,103049.19
2023-02-28T23:33:44.916Z,103054.53
2023-02-28T23:36:14.076Z,103054.78
2023-02-28T23:38:42.452Z,103055.03
2023-02-28T23:41:10.495Z,103057.00
2023-02-28T23:43:37.554Z,103052.66
2023-02-28T23:46:05.127Z,103059.00
2023-02-28T23:48:34.099Z,103056.28
2023-02-28T23:51:08.824Z,103059.00
2023-02-28T23:53:38.089Z,103055.53
2023-02-28T23:56:06.756Z,103060.00
2023-02-28T23:58:33.920Z,103063.84
